createdAt,value
2019-01-21T00:00:34.171Z,4.53
2019-01-21T00:05:37.619Z,3.33
2019-01-21T00:10:41.090Z,4.40
2019-01-21T00:15:44.655Z,3.10
2019-01-21T00:20:48.303Z,3.07
2019-01-21T00:25:51.770Z,3.35
2019-01-21T00:30:55.234Z,3.62
2019-01-21T00:35:58.715Z,4.92
2019-01-21T00:41:02.181Z,3.08
2019-01-21T00:46:05.676Z,3.77
2019-01-21T00:51:09.145Z,2.67
2019-01-21T00:56:12.611Z,3.50
2019-01-21T01:01:16.074Z,3.85
2019-01-21T01:06:19.543Z,3.13
2019-01-21T01:11:23.009Z,4.80
2019-01-21T01:16:26.477Z,3.03
2019-01-21T01:21:29.938Z,2.90
2019-01-21T01:26:33.409Z,4.03
2019-01-21T01:31:36.879Z,3.47
2019-01-21T01:36:40.344Z,4.73
2019-01-21T01:41:43.812Z,2.97
2019-01-21T01:46:47.284Z,3.50
2019-01-21T01:51:50.747Z,2.73
2019-01-21T01:56:54.216Z,3.27
2019-01-21T02:01:57.683Z,3.80
2019-01-21T02:07:01.154Z,3.57
2019-01-21T02:12:05.062Z,3.60
2019-01-21T02:17:08.529Z,2.80
2019-01-21T02:22:15.978Z,3.40
2019-01-21T02:27:21.383Z,3.37
2019-01-21T02:32:46.008Z,3.27
2019-01-21T02:37:55.217Z,3.10
2019-01-21T02:43:18.304Z,3.33
2019-01-21T02:48:27.732Z,3.27
2019-01-21T02:53:40.059Z,3.50
2019-01-21T02:58:55.246Z,4.67
2019-01-21T03:04:18.034Z,3.15
2019-01-21T03:09:33.455Z,4.67
2019-01-21T03:14:48.785Z,3.57
2019-01-21T03:20:11.951Z,3.42
2019-01-21T03:25:34.994Z,3.17
2019-01-21T03:30:56.484Z,3.83
2019-01-21T03:36:09.048Z,4.07
2019-01-21T03:41:18.139Z,4.57
2019-01-21T03:46:47.111Z,3.60
2019-01-21T03:52:22.175Z,4.17
2019-01-21T03:57:31.902Z,3.60
2019-01-21T04:02:41.355Z,3.50
2019-01-21T04:07:50.554Z,2.93
2019-01-21T04:13:02.644Z,3.85
2019-01-21T04:18:25.625Z,3.60
2019-01-21T04:23:49.762Z,3.83
2019-01-21T04:28:57.176Z,3.73
2019-01-21T04:34:18.807Z,3.63
2019-01-21T04:39:33.979Z,3.73
2019-01-21T04:44:49.428Z,3.77
2019-01-21T04:50:07.971Z,3.83
2019-01-21T04:55:14.496Z,3.70
2019-01-21T05:00:26.959Z,4.28
2019-01-21T05:05:38.939Z,3.60
2019-01-21T05:10:57.435Z,3.60
2019-01-21T05:16:09.754Z,4.30
2019-01-21T05:21:31.962Z,4.53
2019-01-21T05:26:41.219Z,3.20
2019-01-21T05:31:50.733Z,3.40
2019-01-21T05:37:12.136Z,2.37
2019-01-21T05:42:18.750Z,2.50
2019-01-21T05:47:54.254Z,4.23
2019-01-21T05:53:06.352Z,3.72
2019-01-21T05:58:28.296Z,3.70
2019-01-21T06:03:43.699Z,2.63
2019-01-21T06:08:52.787Z,4.20
2019-01-21T06:14:11.084Z,3.33
2019-01-21T06:19:32.426Z,3.50
2019-01-21T06:24:56.924Z,3.33
2019-01-21T06:30:19.928Z,2.30
2019-01-21T06:35:38.250Z,4.13
2019-01-21T06:40:53.586Z,2.67
2019-01-21T06:46:16.795Z,3.10
2019-01-21T06:51:25.826Z,2.27
2019-01-21T06:56:47.771Z,2.50
2019-01-21T07:01:57.398Z,3.20
2019-01-21T07:07:07.077Z,3.03
2019-01-21T07:12:16.547Z,2.53
2019-01-21T07:17:44.822Z,4.20
2019-01-21T07:22:53.778Z,3.30
2019-01-21T07:28:23.066Z,3.37
2019-01-21T07:33:38.662Z,3.00
2019-01-21T07:38:47.981Z,2.57
2019-01-21T07:44:03.556Z,3.55
2019-01-21T07:49:26.594Z,3.20
2019-01-21T07:54:33.124Z,23.83
2019-01-21T07:59:51.317Z,26.80
2019-01-21T08:05:03.711Z,25.23
2019-01-21T08:10:40.709Z,20.17
2019-01-21T08:15:56.383Z,20.73
2019-01-21T08:21:14.875Z,19.10
2019-01-21T08:26:35.988Z,16.73
2019-01-21T08:32:00.634Z,17.63
2019-01-21T08:37:10.161Z,15.73
2019-01-21T08:42:16.702Z,14.07
2019-01-21T08:47:23.648Z,13.73
2019-01-21T08:52:48.488Z,14.77
2019-01-21T08:58:04.657Z,15.97
2019-01-21T09:03:41.708Z,19.00
2019-01-21T09:09:00.324Z,14.10
2019-01-21T09:14:23.574Z,18.30
2019-01-21T09:19:44.676Z,20.23
2019-01-21T09:25:08.917Z,22.17
2019-01-21T09:30:24.437Z,22.17
2019-01-21T09:35:47.530Z,20.27
2019-01-21T09:41:11.734Z,22.67
2019-01-21T09:46:46.887Z,21.27
2019-01-21T09:51:53.487Z,23.20
2019-01-21T09:56:57.514Z,24.17
2019-01-21T10:02:03.914Z,26.23
2019-01-21T10:07:34.504Z,24.67
2019-01-21T10:12:55.929Z,22.73
2019-01-21T10:18:02.469Z,27.13
2019-01-21T10:23:17.957Z,32.50
2019-01-21T10:28:45.441Z,30.80
2019-01-21T10:33:52.100Z,31.47
2019-01-21T10:39:27.331Z,23.90
2019-01-21T10:44:55.225Z,24.73
2019-01-21T10:50:04.461Z,24.27
2019-01-21T10:55:27.432Z,25.63
2019-01-21T11:00:36.740Z,26.17
2019-01-21T11:05:52.223Z,28.50
2019-01-21T11:11:10.964Z,22.27
2019-01-21T11:16:44.949Z,26.87
2019-01-21T11:21:51.474Z,29.33
2019-01-21T11:27:06.794Z,30.00
2019-01-21T11:32:13.316Z,25.57
2019-01-21T11:37:40.883Z,26.37
2019-01-21T11:42:56.317Z,22.97
2019-01-21T11:48:08.885Z,24.87
2019-01-21T11:53:35.228Z,28.20
2019-01-21T11:58:56.895Z,27.83
2019-01-21T12:04:29.229Z,30.23
2019-01-21T12:09:53.877Z,47.48
2019-01-21T12:15:03.355Z,36.80
2019-01-21T12:20:21.920Z,33.90
2019-01-21T12:25:40.592Z,31.23
2019-01-21T12:30:58.956Z,25.70
2019-01-21T12:36:05.604Z,27.77
2019-01-21T12:41:37.690Z,25.07
2019-01-21T12:46:50.017Z,23.87
2019-01-21T12:52:02.388Z,22.27
2019-01-21T12:57:21.019Z,24.00
2019-01-21T13:02:50.461Z,21.60
2019-01-21T13:08:02.448Z,21.13
2019-01-21T13:13:21.352Z,23.45
2019-01-21T13:18:46.136Z,21.60
2019-01-21T13:23:55.458Z,24.97
2019-01-21T13:29:13.961Z,25.88
2019-01-21T13:34:39.761Z,23.17
2019-01-21T13:39:55.530Z,23.97
2019-01-21T13:45:17.790Z,24.37
2019-01-21T13:50:37.219Z,23.90
2019-01-21T13:55:56.009Z,24.10
2019-01-21T14:01:17.560Z,23.10
2019-01-21T14:06:35.928Z,23.23
2019-01-21T14:11:54.021Z,22.53
2019-01-21T14:17:17.508Z,23.97
2019-01-21T14:22:44.739Z,25.70
2019-01-21T14:28:05.867Z,21.73
2019-01-21T14:33:28.647Z,20.93
2019-01-21T14:38:40.621Z,19.63
2019-01-21T14:49:04.797Z,24.63
2019-01-21T15:21:18.778Z,23.33
2019-01-21T15:26:34.158Z,26.00
2019-01-21T15:31:46.637Z,23.12
2019-01-21T15:37:09.669Z,21.57
2019-01-21T15:42:24.959Z,19.93
2019-01-21T15:47:37.369Z,20.85
2019-01-21T15:52:43.921Z,21.37
2019-01-21T15:57:59.013Z,22.90
2019-01-21T16:03:17.572Z,19.30
2019-01-21T16:08:24.300Z,19.90
2019-01-21T16:13:33.475Z,17.17
2019-01-21T16:18:40.035Z,19.23
2019-01-21T16:24:19.797Z,16.20
2019-01-21T16:29:29.178Z,16.37
2019-01-21T16:34:44.377Z,15.93
2019-01-21T16:39:59.926Z,20.37
2019-01-21T16:45:03.804Z,20.45
2019-01-21T16:50:08.226Z,23.70
2019-01-21T16:55:11.719Z,34.80
2019-01-21T17:00:15.845Z,41.37
2019-01-21T17:05:19.577Z,50.90
2019-01-21T17:10:23.075Z,44.57
2019-01-21T17:15:26.572Z,49.58
2019-01-21T17:20:30.060Z,61.58
2019-01-21T17:25:33.557Z,65.13
2019-01-21T17:30:37.051Z,54.40
2019-01-21T17:35:40.547Z,59.83
2019-01-21T17:40:44.032Z,59.53
2019-01-21T17:45:47.521Z,50.52
2019-01-21T17:50:51.014Z,51.68
2019-01-21T17:55:54.496Z,56.93
2019-01-21T18:00:57.977Z,49.33
2019-01-21T18:06:01.467Z,53.30
2019-01-21T18:11:05.010Z,48.35
2019-01-21T18:16:08.556Z,45.87
2019-01-21T18:21:12.028Z,41.60
2019-01-21T18:26:15.505Z,45.60
2019-01-21T18:31:18.980Z,46.10
2019-01-21T18:36:22.460Z,47.67
2019-01-21T18:41:25.943Z,39.70
2019-01-21T18:46:29.426Z,38.33
2019-01-21T18:51:32.905Z,39.93
2019-01-21T18:56:36.388Z,38.27
2019-01-21T19:01:39.859Z,44.83
2019-01-21T19:06:43.333Z,43.13
2019-01-21T19:11:46.805Z,39.53
2019-01-21T19:16:50.280Z,40.37
2019-01-21T19:21:53.912Z,39.30
2019-01-21T19:26:57.411Z,33.25
2019-01-21T19:32:00.890Z,35.43
2019-01-21T19:37:04.365Z,38.23
2019-01-21T19:42:07.840Z,38.30
2019-01-21T19:47:11.312Z,33.93
2019-01-21T19:52:14.795Z,32.88
2019-01-21T19:57:18.282Z,26.77
2019-01-21T20:02:21.759Z,29.75
2019-01-21T20:07:25.247Z,31.60
2019-01-21T20:12:28.713Z,29.30
2019-01-21T20:17:32.184Z,28.50
2019-01-21T20:22:35.661Z,29.47
2019-01-21T20:27:39.139Z,30.07
2019-01-21T20:32:42.618Z,28.13
2019-01-21T20:37:46.092Z,30.70
2019-01-21T20:42:49.569Z,30.92
2019-01-21T20:47:53.047Z,25.30
2019-01-21T20:52:56.587Z,29.50
2019-01-21T20:58:00.062Z,26.53
2019-01-21T21:03:03.542Z,27.23
2019-01-21T21:08:07.023Z,28.17
2019-01-21T21:13:10.520Z,22.13
2019-01-21T21:18:13.998Z,27.63
2019-01-21T21:23:17.475Z,26.10
2019-01-21T21:28:20.960Z,25.77
2019-01-21T21:33:24.617Z,23.23
2019-01-21T21:38:28.097Z,24.12
2019-01-21T21:43:31.576Z,26.17
2019-01-21T21:48:35.048Z,23.43
2019-01-21T21:53:38.522Z,23.93
2019-01-21T21:58:41.996Z,24.03
2019-01-21T22:03:45.473Z,22.70
2019-01-21T22:08:48.952Z,21.50
2019-01-21T22:13:52.426Z,22.53
2019-01-21T22:18:55.908Z,21.03
2019-01-21T22:23:59.383Z,18.70
2019-01-21T22:29:03.129Z,23.97
2019-01-21T22:34:06.605Z,18.67
2019-01-21T22:39:10.082Z,21.43
2019-01-21T22:44:13.560Z,22.57
2019-01-21T22:49:17.032Z,22.20
2019-01-21T22:54:20.514Z,17.50
2019-01-21T22:59:23.995Z,19.33
2019-01-21T23:04:27.474Z,17.53
2019-01-21T23:09:30.958Z,18.92
2019-01-21T23:14:34.433Z,19.73
2019-01-21T23:19:37.912Z,20.35
2019-01-21T23:24:41.396Z,18.30
2019-01-21T23:29:44.861Z,20.20
2019-01-21T23:34:48.716Z,20.70
2019-01-21T23:39:52.188Z,19.70
2019-01-21T23:44:55.664Z,18.48
2019-01-21T23:49:59.136Z,16.25
2019-01-21T23:55:02.684Z,17.60
